sensor_id;sensor_type;location;lat;lon;timestamp;P1;durP1;ratioP1;P2;durP2;ratioP2
74656;SDS011;63185;45.642;13.764;2022-12-18T00:00:56;12.00;;;6.95;;
74656;SDS011;63185;45.642;13.764;2022-12-18T00:03:22;13.23;;;7.18;;
74656;SDS011;63185;45.642;13.764;2022-12-18T00:05:48;12.48;;;7.35;;
74656;SDS011;63185;45.642;13.764;2022-12-18T00:08:15;12.05;;;6.43;;
74656;SDS011;63185;45.642;13.764;2022-12-18T00:10:41;12.98;;;7.10;;
74656;SDS011;63185;45.642;13.764;2022-12-18T00:13:08;13.35;;;7.25;;
74656;SDS011;63185;45.642;13.764;2022-12-18T00:15:35;16.00;;;8.32;;
74656;SDS011;63185;45.642;13.764;2022-12-18T00:18:01;14.98;;;7.60;;
74656;SDS011;63185;45.642;13.764;2022-12-18T00:20:27;13.18;;;7.25;;
74656;SDS011;63185;45.642;13.764;2022-12-18T00:22:53;11.15;;;6.72;;
74656;SDS011;63185;45.642;13.764;2022-12-18T00:25:19;13.95;;;7.35;;
74656;SDS011;63185;45.642;13.764;2022-12-18T00:27:45;13.63;;;6.90;;
74656;SDS011;63185;45.642;13.764;2022-12-18T00:30:11;13.98;;;7.28;;
74656;SDS011;63185;45.642;13.764;2022-12-18T00:32:37;12.55;;;6.82;;
74656;SDS011;63185;45.642;13.764;2022-12-18T00:35:03;12.60;;;7.40;;
74656;SDS011;63185;45.642;13.764;2022-12-18T00:37:30;15.85;;;7.53;;
74656;SDS011;63185;45.642;13.764;2022-12-18T00:39:55;13.70;;;7.40;;
74656;SDS011;63185;45.642;13.764;2022-12-18T00:42:21;13.10;;;6.78;;
74656;SDS011;63185;45.642;13.764;2022-12-18T00:45:05;14.48;;;7.53;;
74656;SDS011;63185;45.642;13.764;2022-12-18T00:47:31;13.40;;;7.75;;
74656;SDS011;63185;45.642;13.764;2022-12-18T00:49:57;15.60;;;8.48;;
74656;SDS011;63185;45.642;13.764;2022-12-18T00:52:23;16.77;;;8.88;;
74656;SDS011;63185;45.642;13.764;2022-12-18T00:54:48;16.58;;;8.27;;
74656;SDS011;63185;45.642;13.764;2022-12-18T00:57:14;13.82;;;8.10;;
74656;SDS011;63185;45.642;13.764;2022-12-18T00:59:40;15.50;;;8.20;;
74656;SDS011;63185;45.642;13.764;2022-12-18T01:02:05;12.50;;;7.57;;
74656;SDS011;63185;45.642;13.764;2022-12-18T01:04:31;14.35;;;7.88;;
74656;SDS011;63185;45.642;13.764;2022-12-18T01:06:58;15.10;;;8.40;;
74656;SDS011;63185;45.642;13.764;2022-12-18T01:09:23;15.73;;;8.98;;
74656;SDS011;63185;45.642;13.764;2022-12-18T01:11:49;16.80;;;9.13;;
74656;SDS011;63185;45.642;13.764;2022-12-18T01:14:15;14.38;;;8.23;;
74656;SDS011;63185;45.642;13.764;2022-12-18T01:16:41;17.25;;;9.07;;
74656;SDS011;63185;45.642;13.764;2022-12-18T01:19:06;15.75;;;8.68;;
74656;SDS011;63185;45.642;13.764;2022-12-18T01:21:35;14.80;;;8.50;;
74656;SDS011;63185;45.642;13.764;2022-12-18T01:24:01;16.23;;;8.60;;
74656;SDS011;63185;45.642;13.764;2022-12-18T01:26:27;15.23;;;8.57;;
74656;SDS011;63185;45.642;13.764;2022-12-18T01:28:55;17.45;;;8.88;;
74656;SDS011;63185;45.642;13.764;2022-12-18T01:31:24;18.10;;;9.40;;
74656;SDS011;63185;45.642;13.764;2022-12-18T01:33:53;16.80;;;9.40;;
74656;SDS011;63185;45.642;13.764;2022-12-18T01:38:50;17.00;;;9.52;;
74656;SDS011;63185;45.642;13.764;2022-12-18T01:41:17;17.17;;;9.05;;
74656;SDS011;63185;45.642;13.764;2022-12-18T01:43:47;17.40;;;9.23;;
74656;SDS011;63185;45.642;13.764;2022-12-18T01:46:19;16.45;;;9.27;;
74656;SDS011;63185;45.642;13.764;2022-12-18T01:48:49;18.02;;;9.13;;
74656;SDS011;63185;45.642;13.764;2022-12-18T01:51:19;17.65;;;9.18;;
74656;SDS011;63185;45.642;13.764;2022-12-18T01:53:45;16.45;;;8.80;;
74656;SDS011;63185;45.642;13.764;2022-12-18T01:56:13;18.48;;;9.57;;
74656;SDS011;63185;45.642;13.764;2022-12-18T01:58:45;12.52;;;7.35;;
74656;SDS011;63185;45.642;13.764;2022-12-18T02:01:23;18.00;;;9.85;;
74656;SDS011;63185;45.642;13.764;2022-12-18T02:03:50;17.77;;;9.63;;
74656;SDS011;63185;45.642;13.764;2022-12-18T02:06:21;17.25;;;9.30;;
74656;SDS011;63185;45.642;13.764;2022-12-18T02:22:16;19.02;;;9.43;;
74656;SDS011;63185;45.642;13.764;2022-12-18T02:26:00;17.70;;;9.63;;
74656;SDS011;63185;45.642;13.764;2022-12-18T02:28:04;17.90;;;9.68;;
74656;SDS011;63185;45.642;13.764;2022-12-18T02:30:34;18.38;;;9.63;;
74656;SDS011;63185;45.642;13.764;2022-12-18T02:33:02;18.25;;;9.52;;
74656;SDS011;63185;45.642;13.764;2022-12-18T02:35:31;18.35;;;10.35;;
74656;SDS011;63185;45.642;13.764;2022-12-18T02:37:58;17.00;;;9.07;;
74656;SDS011;63185;45.642;13.764;2022-12-18T02:40:26;18.13;;;9.68;;
74656;SDS011;63185;45.642;13.764;2022-12-18T02:42:53;18.30;;;10.18;;
74656;SDS011;63185;45.642;13.764;2022-12-18T02:45:19;19.73;;;9.90;;
74656;SDS011;63185;45.642;13.764;2022-12-18T02:47:45;17.63;;;9.75;;
74656;SDS011;63185;45.642;13.764;2022-12-18T02:50:26;18.17;;;9.68;;
74656;SDS011;63185;45.642;13.764;2022-12-18T03:04:02;19.38;;;10.00;;
74656;SDS011;63185;45.642;13.764;2022-12-18T03:06:37;18.80;;;9.57;;
74656;SDS011;63185;45.642;13.764;2022-12-18T03:09:10;18.65;;;10.02;;
74656;SDS011;63185;45.642;13.764;2022-12-18T03:11:41;19.20;;;10.43;;
74656;SDS011;63185;45.642;13.764;2022-12-18T03:14:29;19.08;;;9.68;;
74656;SDS011;63185;45.642;13.764;2022-12-18T03:16:59;19.02;;;10.00;;
74656;SDS011;63185;45.642;13.764;2022-12-18T03:19:28;19.95;;;9.68;;
74656;SDS011;63185;45.642;13.764;2022-12-18T03:21:56;20.70;;;9.90;;
74656;SDS011;63185;45.642;13.764;2022-12-18T03:24:23;18.75;;;10.30;;
74656;SDS011;63185;45.642;13.764;2022-12-18T03:26:52;21.38;;;10.55;;
74656;SDS011;63185;45.642;13.764;2022-12-18T03:29:27;17.75;;;9.85;;
74656;SDS011;63185;45.642;13.764;2022-12-18T03:32:07;18.65;;;10.05;;
74656;SDS011;63185;45.642;13.764;2022-12-18T03:34:35;19.75;;;10.60;;
74656;SDS011;63185;45.642;13.764;2022-12-18T03:37:05;21.80;;;10.65;;
74656;SDS011;63185;45.642;13.764;2022-12-18T03:39:31;20.10;;;10.20;;
74656;SDS011;63185;45.642;13.764;2022-12-18T03:50:22;18.23;;;9.95;;
74656;SDS011;63185;45.642;13.764;2022-12-18T03:56:31;19.73;;;11.05;;
74656;SDS011;63185;45.642;13.764;2022-12-18T03:59:02;19.70;;;10.90;;
74656;SDS011;63185;45.642;13.764;2022-12-18T04:01:40;21.80;;;11.27;;
74656;SDS011;63185;45.642;13.764;2022-12-18T04:04:08;19.88;;;11.35;;
74656;SDS011;63185;45.642;13.764;2022-12-18T04:06:36;22.42;;;11.50;;
74656;SDS011;63185;45.642;13.764;2022-12-18T04:09:03;20.13;;;10.63;;
74656;SDS011;63185;45.642;13.764;2022-12-18T04:11:29;21.58;;;11.07;;
74656;SDS011;63185;45.642;13.764;2022-12-18T04:13:56;21.92;;;11.23;;
74656;SDS011;63185;45.642;13.764;2022-12-18T04:16:23;21.83;;;11.15;;
74656;SDS011;63185;45.642;13.764;2022-12-18T04:18:49;22.13;;;11.40;;
74656;SDS011;63185;45.642;13.764;2022-12-18T04:21:15;20.38;;;10.98;;
74656;SDS011;63185;45.642;13.764;2022-12-18T04:23:41;21.42;;;11.00;;
74656;SDS011;63185;45.642;13.764;2022-12-18T04:26:06;20.75;;;11.02;;
74656;SDS011;63185;45.642;13.764;2022-12-18T04:28:32;19.85;;;10.98;;
74656;SDS011;63185;45.642;13.764;2022-12-18T04:30:58;21.20;;;11.07;;
74656;SDS011;63185;45.642;13.764;2022-12-18T04:33:23;22.27;;;11.38;;
74656;SDS011;63185;45.642;13.764;2022-12-18T04:35:49;25.38;;;12.35;;
74656;SDS011;63185;45.642;13.764;2022-12-18T04:38:15;19.60;;;10.98;;
74656;SDS011;63185;45.642;13.764;2022-12-18T04:40:41;22.40;;;12.15;;
74656;SDS011;63185;45.642;13.764;2022-12-18T04:43:07;21.20;;;12.00;;
74656;SDS011;63185;45.642;13.764;2022-12-18T04:45:33;24.60;;;11.70;;
74656;SDS011;63185;45.642;13.764;2022-12-18T04:47:59;23.48;;;12.38;;
74656;SDS011;63185;45.642;13.764;2022-12-18T04:50:26;23.98;;;12.20;;
74656;SDS011;63185;45.642;13.764;2022-12-18T04:52:52;22.13;;;11.75;;
74656;SDS011;63185;45.642;13.764;2022-12-18T04:55:18;22.13;;;11.90;;
74656;SDS011;63185;45.642;13.764;2022-12-18T04:57:44;21.70;;;11.80;;
74656;SDS011;63185;45.642;13.764;2022-12-18T05:00:10;22.67;;;11.93;;
74656;SDS011;63185;45.642;13.764;2022-12-18T05:02:36;23.95;;;12.18;;
74656;SDS011;63185;45.642;13.764;2022-12-18T05:05:02;24.27;;;12.00;;
74656;SDS011;63185;45.642;13.764;2022-12-18T05:07:28;20.60;;;11.63;;
74656;SDS011;63185;45.642;13.764;2022-12-18T05:09:53;22.73;;;11.75;;
74656;SDS011;63185;45.642;13.764;2022-12-18T05:12:19;25.17;;;12.45;;
74656;SDS011;63185;45.642;13.764;2022-12-18T05:14:45;23.63;;;12.93;;
74656;SDS011;63185;45.642;13.764;2022-12-18T05:17:10;24.23;;;12.55;;
74656;SDS011;63185;45.642;13.764;2022-12-18T05:19:36;24.13;;;12.70;;
74656;SDS011;63185;45.642;13.764;2022-12-18T05:22:02;24.38;;;13.15;;
74656;SDS011;63185;45.642;13.764;2022-12-18T05:24:27;25.55;;;12.57;;
74656;SDS011;63185;45.642;13.764;2022-12-18T05:26:53;25.05;;;12.80;;
74656;SDS011;63185;45.642;13.764;2022-12-18T05:29:19;24.40;;;12.27;;
74656;SDS011;63185;45.642;13.764;2022-12-18T05:31:44;25.13;;;12.85;;
74656;SDS011;63185;45.642;13.764;2022-12-18T05:34:10;23.98;;;12.07;;
74656;SDS011;63185;45.642;13.764;2022-12-18T05:36:36;26.40;;;13.48;;
74656;SDS011;63185;45.642;13.764;2022-12-18T05:39:01;24.15;;;13.05;;
74656;SDS011;63185;45.642;13.764;2022-12-18T05:41:27;24.25;;;12.82;;
74656;SDS011;63185;45.642;13.764;2022-12-18T05:43:53;26.08;;;13.93;;
74656;SDS011;63185;45.642;13.764;2022-12-18T05:46:19;27.55;;;13.10;;
74656;SDS011;63185;45.642;13.764;2022-12-18T05:48:45;23.67;;;12.65;;
74656;SDS011;63185;45.642;13.764;2022-12-18T05:51:13;29.90;;;14.20;;
74656;SDS011;63185;45.642;13.764;2022-12-18T05:56:08;46.67;;;15.40;;
74656;SDS011;63185;45.642;13.764;2022-12-18T05:58:37;28.48;;;14.70;;
74656;SDS011;63185;45.642;13.764;2022-12-18T06:01:23;24.42;;;12.95;;
74656;SDS011;63185;45.642;13.764;2022-12-18T06:03:51;26.73;;;13.30;;
74656;SDS011;63185;45.642;13.764;2022-12-18T06:06:18;28.10;;;13.80;;
74656;SDS011;63185;45.642;13.764;2022-12-18T06:08:46;18.73;;;10.05;;
74656;SDS011;63185;45.642;13.764;2022-12-18T06:11:12;26.13;;;14.20;;
74656;SDS011;63185;45.642;13.764;2022-12-18T06:13:40;25.65;;;13.50;;
74656;SDS011;63185;45.642;13.764;2022-12-18T06:16:06;26.02;;;13.00;;
74656;SDS011;63185;45.642;13.764;2022-12-18T06:18:33;28.63;;;13.43;;
74656;SDS011;63185;45.642;13.764;2022-12-18T06:20:59;28.05;;;13.98;;
74656;SDS011;63185;45.642;13.764;2022-12-18T06:23:25;24.60;;;13.38;;
74656;SDS011;63185;45.642;13.764;2022-12-18T06:25:51;25.05;;;13.38;;
74656;SDS011;63185;45.642;13.764;2022-12-18T06:28:17;28.23;;;14.52;;
74656;SDS011;63185;45.642;13.764;2022-12-18T06:30:43;25.85;;;13.82;;
74656;SDS011;63185;45.642;13.764;2022-12-18T06:33:09;26.90;;;14.38;;
74656;SDS011;63185;45.642;13.764;2022-12-18T06:35:35;27.63;;;14.65;;
74656;SDS011;63185;45.642;13.764;2022-12-18T06:38:02;29.08;;;15.23;;
74656;SDS011;63185;45.642;13.764;2022-12-18T06:40:28;27.13;;;13.77;;
74656;SDS011;63185;45.642;13.764;2022-12-18T06:42:54;31.88;;;14.77;;
74656;SDS011;63185;45.642;13.764;2022-12-18T06:45:20;25.77;;;14.10;;
74656;SDS011;63185;45.642;13.764;2022-12-18T06:47:45;27.13;;;13.82;;
74656;SDS011;63185;45.642;13.764;2022-12-18T06:50:11;29.15;;;14.57;;
74656;SDS011;63185;45.642;13.764;2022-12-18T06:52:38;31.17;;;15.13;;
74656;SDS011;63185;45.642;13.764;2022-12-18T06:55:06;30.10;;;15.88;;
74656;SDS011;63185;45.642;13.764;2022-12-18T06:57:33;31.55;;;15.85;;
74656;SDS011;63185;45.642;13.764;2022-12-18T06:59:59;29.95;;;15.77;;
74656;SDS011;63185;45.642;13.764;2022-12-18T07:02:25;33.40;;;16.42;;
74656;SDS011;63185;45.642;13.764;2022-12-18T07:04:50;32.55;;;16.13;;
74656;SDS011;63185;45.642;13.764;2022-12-18T07:07:16;29.67;;;15.63;;
74656;SDS011;63185;45.642;13.764;2022-12-18T07:09:42;30.85;;;15.65;;
74656;SDS011;63185;45.642;13.764;2022-12-18T07:12:07;32.97;;;15.65;;
74656;SDS011;63185;45.642;13.764;2022-12-18T07:14:33;30.40;;;15.93;;
74656;SDS011;63185;45.642;13.764;2022-12-18T07:16:59;32.13;;;15.85;;
74656;SDS011;63185;45.642;13.764;2022-12-18T07:19:25;28.17;;;15.27;;
74656;SDS011;63185;45.642;13.764;2022-12-18T07:21:50;29.00;;;14.48;;
74656;SDS011;63185;45.642;13.764;2022-12-18T07:24:16;29.17;;;14.20;;
74656;SDS011;63185;45.642;13.764;2022-12-18T07:26:42;27.88;;;14.30;;
74656;SDS011;63185;45.642;13.764;2022-12-18T07:29:10;29.48;;;14.73;;
74656;SDS011;63185;45.642;13.764;2022-12-18T07:31:36;24.67;;;13.20;;
74656;SDS011;63185;45.642;13.764;2022-12-18T07:34:01;23.85;;;12.77;;
74656;SDS011;63185;45.642;13.764;2022-12-18T07:36:27;25.33;;;13.35;;
74656;SDS011;63185;45.642;13.764;2022-12-18T07:38:53;24.17;;;12.55;;
74656;SDS011;63185;45.642;13.764;2022-12-18T07:41:19;24.80;;;13.70;;
74656;SDS011;63185;45.642;13.764;2022-12-18T07:43:45;23.73;;;12.30;;
74656;SDS011;63185;45.642;13.764;2022-12-18T07:46:12;22.65;;;12.00;;
74656;SDS011;63185;45.642;13.764;2022-12-18T07:48:42;21.38;;;11.70;;
74656;SDS011;63185;45.642;13.764;2022-12-18T07:51:10;21.67;;;10.85;;
74656;SDS011;63185;45.642;13.764;2022-12-18T07:53:37;21.90;;;11.55;;
74656;SDS011;63185;45.642;13.764;2022-12-18T07:56:05;19.42;;;10.70;;
74656;SDS011;63185;45.642;13.764;2022-12-18T07:58:32;20.83;;;10.98;;
74656;SDS011;63185;45.642;13.764;2022-12-18T08:01:02;20.20;;;10.55;;
74656;SDS011;63185;45.642;13.764;2022-12-18T08:03:29;19.98;;;11.15;;
74656;SDS011;63185;45.642;13.764;2022-12-18T08:05:59;22.92;;;10.48;;
74656;SDS011;63185;45.642;13.764;2022-12-18T08:08:25;20.60;;;10.90;;
74656;SDS011;63185;45.642;13.764;2022-12-18T08:10:51;19.13;;;10.38;;
74656;SDS011;63185;45.642;13.764;2022-12-18T08:13:16;19.05;;;9.85;;
74656;SDS011;63185;45.642;13.764;2022-12-18T08:15:42;19.02;;;9.75;;
74656;SDS011;63185;45.642;13.764;2022-12-18T08:18:08;16.90;;;9.40;;
74656;SDS011;63185;45.642;13.764;2022-12-18T08:20:33;21.15;;;11.00;;
74656;SDS011;63185;45.642;13.764;2022-12-18T08:22:59;17.33;;;9.57;;
74656;SDS011;63185;45.642;13.764;2022-12-18T08:25:25;16.80;;;9.73;;
74656;SDS011;63185;45.642;13.764;2022-12-18T08:27:50;19.80;;;10.10;;
74656;SDS011;63185;45.642;13.764;2022-12-18T08:30:16;17.88;;;9.75;;
74656;SDS011;63185;45.642;13.764;2022-12-18T08:32:42;18.70;;;9.90;;
74656;SDS011;63185;45.642;13.764;2022-12-18T08:35:08;17.85;;;9.45;;
74656;SDS011;63185;45.642;13.764;2022-12-18T08:37:34;19.60;;;9.82;;
74656;SDS011;63185;45.642;13.764;2022-12-18T08:39:59;18.00;;;9.52;;
74656;SDS011;63185;45.642;13.764;2022-12-18T08:42:25;19.70;;;9.45;;
74656;SDS011;63185;45.642;13.764;2022-12-18T08:45:09;18.67;;;9.77;;
74656;SDS011;63185;45.642;13.764;2022-12-18T08:47:35;17.92;;;9.68;;
74656;SDS011;63185;45.642;13.764;2022-12-18T08:50:01;19.00;;;9.55;;
74656;SDS011;63185;45.642;13.764;2022-12-18T08:52:27;17.83;;;9.30;;
74656;SDS011;63185;45.642;13.764;2022-12-18T08:54:53;19.50;;;9.93;;
74656;SDS011;63185;45.642;13.764;2022-12-18T08:57:18;19.35;;;9.85;;
74656;SDS011;63185;45.642;13.764;2022-12-18T08:59:44;19.42;;;9.80;;
74656;SDS011;63185;45.642;13.764;2022-12-18T09:02:10;20.10;;;10.18;;
74656;SDS011;63185;45.642;13.764;2022-12-18T09:04:36;19.02;;;10.07;;
74656;SDS011;63185;45.642;13.764;2022-12-18T09:07:02;18.67;;;9.93;;
74656;SDS011;63185;45.642;13.764;2022-12-18T09:09:28;20.80;;;10.45;;
74656;SDS011;63185;45.642;13.764;2022-12-18T09:11:53;21.05;;;10.50;;
74656;SDS011;63185;45.642;13.764;2022-12-18T09:14:19;18.77;;;10.65;;
74656;SDS011;63185;45.642;13.764;2022-12-18T09:16:45;20.63;;;11.15;;
74656;SDS011;63185;45.642;13.764;2022-12-18T09:19:10;18.75;;;10.00;;
74656;SDS011;63185;45.642;13.764;2022-12-18T09:21:36;20.05;;;10.60;;
74656;SDS011;63185;45.642;13.764;2022-12-18T09:24:04;18.98;;;10.48;;
74656;SDS011;63185;45.642;13.764;2022-12-18T09:26:30;19.13;;;10.27;;
74656;SDS011;63185;45.642;13.764;2022-12-18T09:28:55;20.02;;;11.18;;
74656;SDS011;63185;45.642;13.764;2022-12-18T09:31:22;20.80;;;11.05;;
74656;SDS011;63185;45.642;13.764;2022-12-18T09:33:49;20.60;;;10.77;;
74656;SDS011;63185;45.642;13.764;2022-12-18T09:36:16;22.17;;;11.30;;
74656;SDS011;63185;45.642;13.764;2022-12-18T09:38:43;20.40;;;10.77;;
74656;SDS011;63185;45.642;13.764;2022-12-18T09:43:51;21.98;;;12.05;;
74656;SDS011;63185;45.642;13.764;2022-12-18T09:46:25;22.08;;;11.30;;
74656;SDS011;63185;45.642;13.764;2022-12-18T09:48:56;18.88;;;10.60;;
74656;SDS011;63185;45.642;13.764;2022-12-18T09:51:27;21.00;;;11.05;;
74656;SDS011;63185;45.642;13.764;2022-12-18T09:53:58;21.30;;;11.73;;
74656;SDS011;63185;45.642;13.764;2022-12-18T09:56:28;21.45;;;11.50;;
74656;SDS011;63185;45.642;13.764;2022-12-18T09:58:59;24.95;;;13.70;;
74656;SDS011;63185;45.642;13.764;2022-12-18T10:01:26;25.70;;;13.95;;
74656;SDS011;63185;45.642;13.764;2022-12-18T10:03:54;23.23;;;13.02;;
74656;SDS011;63185;45.642;13.764;2022-12-18T10:17:45;22.27;;;12.27;;
74656;SDS011;63185;45.642;13.764;2022-12-18T10:20:16;22.33;;;12.73;;
74656;SDS011;63185;45.642;13.764;2022-12-18T10:22:57;21.73;;;11.90;;
74656;SDS011;63185;45.642;13.764;2022-12-18T10:28:15;23.58;;;12.48;;
74656;SDS011;63185;45.642;13.764;2022-12-18T10:30:42;22.67;;;11.93;;
74656;SDS011;63185;45.642;13.764;2022-12-18T10:33:11;23.23;;;12.27;;
74656;SDS011;63185;45.642;13.764;2022-12-18T10:35:56;21.92;;;12.38;;
74656;SDS011;63185;45.642;13.764;2022-12-18T10:38:28;23.10;;;12.13;;
74656;SDS011;63185;45.642;13.764;2022-12-18T10:41:01;20.83;;;12.45;;
74656;SDS011;63185;45.642;13.764;2022-12-18T10:43:30;23.88;;;13.35;;
74656;SDS011;63185;45.642;13.764;2022-12-18T10:46:00;23.35;;;12.25;;
74656;SDS011;63185;45.642;13.764;2022-12-18T10:48:34;22.02;;;12.23;;
74656;SDS011;63185;45.642;13.764;2022-12-18T10:54:34;22.55;;;12.52;;
74656;SDS011;63185;45.642;13.764;2022-12-18T10:56:43;21.85;;;11.88;;
74656;SDS011;63185;45.642;13.764;2022-12-18T10:59:11;20.77;;;11.65;;
74656;SDS011;63185;45.642;13.764;2022-12-18T11:06:53;21.90;;;12.23;;
74656;SDS011;63185;45.642;13.764;2022-12-18T11:11:58;23.95;;;13.57;;
74656;SDS011;63185;45.642;13.764;2022-12-18T11:14:31;25.10;;;13.52;;
74656;SDS011;63185;45.642;13.764;2022-12-18T11:16:59;31.63;;;15.25;;
74656;SDS011;63185;45.642;13.764;2022-12-18T11:22:03;27.42;;;14.57;;
74656;SDS011;63185;45.642;13.764;2022-12-18T11:24:58;27.55;;;14.40;;
74656;SDS011;63185;45.642;13.764;2022-12-18T11:27:26;26.27;;;14.75;;
74656;SDS011;63185;45.642;13.764;2022-12-18T11:30:06;27.80;;;14.75;;
74656;SDS011;63185;45.642;13.764;2022-12-18T11:32:47;26.33;;;15.05;;
74656;SDS011;63185;45.642;13.764;2022-12-18T11:38:45;27.13;;;13.93;;
74656;SDS011;63185;45.642;13.764;2022-12-18T11:46:10;23.92;;;13.57;;
74656;SDS011;63185;45.642;13.764;2022-12-18T11:48:52;22.88;;;12.68;;
74656;SDS011;63185;45.642;13.764;2022-12-18T11:51:51;22.95;;;12.23;;
74656;SDS011;63185;45.642;13.764;2022-12-18T11:54:21;23.88;;;12.93;;
74656;SDS011;63185;45.642;13.764;2022-12-18T12:05:01;19.63;;;11.48;;
74656;SDS011;63185;45.642;13.764;2022-12-18T12:13:23;19.60;;;11.88;;
74656;SDS011;63185;45.642;13.764;2022-12-18T12:21:43;21.23;;;11.43;;
74656;SDS011;63185;45.642;13.764;2022-12-18T12:32:46;19.58;;;11.32;;
74656;SDS011;63185;45.642;13.764;2022-12-18T12:40:45;19.48;;;11.18;;
74656;SDS011;63185;45.642;13.764;2022-12-18T12:43:27;20.08;;;11.15;;
74656;SDS011;63185;45.642;13.764;2022-12-18T12:46:07;17.90;;;10.00;;
74656;SDS011;63185;45.642;13.764;2022-12-18T12:48:37;19.15;;;10.57;;
74656;SDS011;63185;45.642;13.764;2022-12-18T12:51:21;18.95;;;10.30;;
74656;SDS011;63185;45.642;13.764;2022-12-18T12:53:50;18.08;;;10.40;;
74656;SDS011;63185;45.642;13.764;2022-12-18T12:56:18;17.92;;;10.05;;
74656;SDS011;63185;45.642;13.764;2022-12-18T13:01:16;17.17;;;10.30;;
74656;SDS011;63185;45.642;13.764;2022-12-18T13:06:43;20.05;;;10.70;;
74656;SDS011;63185;45.642;13.764;2022-12-18T13:09:14;19.60;;;11.50;;
74656;SDS011;63185;45.642;13.764;2022-12-18T13:14:29;19.48;;;10.65;;
74656;SDS011;63185;45.642;13.764;2022-12-18T13:19:44;19.70;;;10.90;;
74656;SDS011;63185;45.642;13.764;2022-12-18T13:22:29;20.23;;;11.48;;
74656;SDS011;63185;45.642;13.764;2022-12-18T13:28:01;19.00;;;10.65;;
74656;SDS011;63185;45.642;13.764;2022-12-18T13:38:32;21.08;;;11.60;;
74656;SDS011;63185;45.642;13.764;2022-12-18T13:43:43;20.45;;;11.38;;
74656;SDS011;63185;45.642;13.764;2022-12-18T13:52:39;21.45;;;11.18;;
74656;SDS011;63185;45.642;13.764;2022-12-18T13:55:03;18.00;;;10.75;;
74656;SDS011;63185;45.642;13.764;2022-12-18T13:57:35;20.05;;;11.65;;
74656;SDS011;63185;45.642;13.764;2022-12-18T14:02:47;20.35;;;11.25;;
74656;SDS011;63185;45.642;13.764;2022-12-18T14:07:58;21.90;;;12.30;;
74656;SDS011;63185;45.642;13.764;2022-12-18T14:10:30;22.33;;;12.60;;
74656;SDS011;63185;45.642;13.764;2022-12-18T14:12:56;22.38;;;12.20;;
74656;SDS011;63185;45.642;13.764;2022-12-18T14:15:32;21.30;;;11.45;;
74656;SDS011;63185;45.642;13.764;2022-12-18T14:21:27;22.23;;;12.57;;
74656;SDS011;63185;45.642;13.764;2022-12-18T14:24:05;23.23;;;12.10;;
74656;SDS011;63185;45.642;13.764;2022-12-18T14:26:31;22.98;;;12.60;;
74656;SDS011;63185;45.642;13.764;2022-12-18T14:28:59;22.00;;;12.70;;
74656;SDS011;63185;45.642;13.764;2022-12-18T14:32:14;22.23;;;12.27;;
74656;SDS011;63185;45.642;13.764;2022-12-18T14:34:47;21.88;;;11.55;;
74656;SDS011;63185;45.642;13.764;2022-12-18T14:37:23;22.77;;;11.88;;
74656;SDS011;63185;45.642;13.764;2022-12-18T14:39:57;23.25;;;12.23;;
74656;SDS011;63185;45.642;13.764;2022-12-18T14:42:27;23.15;;;12.15;;
74656;SDS011;63185;45.642;13.764;2022-12-18T14:47:57;23.00;;;12.88;;
74656;SDS011;63185;45.642;13.764;2022-12-18T14:50:23;23.00;;;12.68;;
74656;SDS011;63185;45.642;13.764;2022-12-18T14:52:49;22.17;;;12.00;;
74656;SDS011;63185;45.642;13.764;2022-12-18T14:55:16;23.63;;;12.45;;
74656;SDS011;63185;45.642;13.764;2022-12-18T14:57:43;23.23;;;12.40;;
74656;SDS011;63185;45.642;13.764;2022-12-18T15:00:17;19.63;;;11.35;;
74656;SDS011;63185;45.642;13.764;2022-12-18T15:02:49;21.25;;;12.05;;
74656;SDS011;63185;45.642;13.764;2022-12-18T15:05:20;21.17;;;12.10;;
74656;SDS011;63185;45.642;13.764;2022-12-18T15:07:54;20.65;;;12.25;;
74656;SDS011;63185;45.642;13.764;2022-12-18T15:10:23;20.17;;;11.85;;
74656;SDS011;63185;45.642;13.764;2022-12-18T15:18:01;23.52;;;13.05;;
74656;SDS011;63185;45.642;13.764;2022-12-18T15:20:33;23.80;;;12.47;;
74656;SDS011;63185;45.642;13.764;2022-12-18T15:25:56;25.27;;;13.57;;
74656;SDS011;63185;45.642;13.764;2022-12-18T15:28:33;17.10;;;9.90;;
74656;SDS011;63185;45.642;13.764;2022-12-18T15:33:38;23.45;;;12.95;;
74656;SDS011;63185;45.642;13.764;2022-12-18T15:36:05;26.17;;;13.60;;
74656;SDS011;63185;45.642;13.764;2022-12-18T15:38:35;27.15;;;14.70;;
74656;SDS011;63185;45.642;13.764;2022-12-18T15:41:22;24.95;;;13.60;;
74656;SDS011;63185;45.642;13.764;2022-12-18T15:43:49;26.20;;;13.10;;
74656;SDS011;63185;45.642;13.764;2022-12-18T15:48:56;26.17;;;13.88;;
74656;SDS011;63185;45.642;13.764;2022-12-18T15:51:23;27.40;;;13.30;;
74656;SDS011;63185;45.642;13.764;2022-12-18T15:53:54;24.88;;;12.38;;
74656;SDS011;63185;45.642;13.764;2022-12-18T15:56:22;24.58;;;13.00;;
74656;SDS011;63185;45.642;13.764;2022-12-18T15:59:14;24.15;;;13.95;;
74656;SDS011;63185;45.642;13.764;2022-12-18T16:01:44;25.48;;;13.38;;
74656;SDS011;63185;45.642;13.764;2022-12-18T16:04:12;24.65;;;13.30;;
74656;SDS011;63185;45.642;13.764;2022-12-18T16:06:41;24.15;;;12.90;;
74656;SDS011;63185;45.642;13.764;2022-12-18T16:09:07;23.40;;;12.65;;
74656;SDS011;63185;45.642;13.764;2022-12-18T16:11:33;25.08;;;13.15;;
74656;SDS011;63185;45.642;13.764;2022-12-18T16:14:06;26.92;;;13.80;;
74656;SDS011;63185;45.642;13.764;2022-12-18T16:16:47;24.02;;;12.70;;
74656;SDS011;63185;45.642;13.764;2022-12-18T16:19:15;26.50;;;13.65;;
74656;SDS011;63185;45.642;13.764;2022-12-18T16:21:41;24.95;;;12.77;;
74656;SDS011;63185;45.642;13.764;2022-12-18T16:24:29;24.90;;;13.68;;
74656;SDS011;63185;45.642;13.764;2022-12-18T16:26:55;25.10;;;13.07;;
74656;SDS011;63185;45.642;13.764;2022-12-18T16:29:23;24.50;;;12.80;;
74656;SDS011;63185;45.642;13.764;2022-12-18T16:31:56;24.20;;;13.15;;
74656;SDS011;63185;45.642;13.764;2022-12-18T16:34:27;26.83;;;13.07;;
74656;SDS011;63185;45.642;13.764;2022-12-18T16:36:58;25.27;;;12.98;;
74656;SDS011;63185;45.642;13.764;2022-12-18T16:39:26;22.90;;;12.20;;
74656;SDS011;63185;45.642;13.764;2022-12-18T16:41:52;25.35;;;13.43;;
74656;SDS011;63185;45.642;13.764;2022-12-18T16:44:18;24.00;;;13.07;;
74656;SDS011;63185;45.642;13.764;2022-12-18T16:46:44;26.60;;;13.32;;
74656;SDS011;63185;45.642;13.764;2022-12-18T16:49:11;21.65;;;11.85;;
74656;SDS011;63185;45.642;13.764;2022-12-18T16:51:37;22.77;;;11.27;;
74656;SDS011;63185;45.642;13.764;2022-12-18T16:54:03;20.92;;;11.90;;
74656;SDS011;63185;45.642;13.764;2022-12-18T16:56:30;21.45;;;11.70;;
74656;SDS011;63185;45.642;13.764;2022-12-18T16:58:56;24.15;;;11.40;;
74656;SDS011;63185;45.642;13.764;2022-12-18T17:01:24;22.48;;;11.27;;
74656;SDS011;63185;45.642;13.764;2022-12-18T17:03:51;20.85;;;11.20;;
74656;SDS011;63185;45.642;13.764;2022-12-18T17:06:25;22.35;;;11.27;;
74656;SDS011;63185;45.642;13.764;2022-12-18T17:08:55;18.92;;;10.20;;
74656;SDS011;63185;45.642;13.764;2022-12-18T17:11:29;20.70;;;11.88;;